Time;durP1;ratioP1;P1;durP2;ratioP2;P2;SDS_P1;SDS_P2;PMS_P1;PMS_P2;Temp;Humidity;BMP_temperature;BMP_pressure;BME280_temperature;BME280_humidity;BME280_pressure;Samples;Min_cycle;Max_cycle;Signal;HPM_P1;HPM_P2
2023/04/04 00:02:09;;;;;;;1.30;1.13;;;22.20;87.20;;;;;;5113302;28;20298;-67
2023/04/04 00:04:57;;;;;;;1.48;1.10;;;22.00;86.60;;;;;;5113315;28;20298;-67
2023/04/04 00:07:47;;;;;;;3.33;1.15;;;22.20;81.90;;;;;;5113253;28;20205;-67
2023/04/04 00:10:35;;;;;;;2.40;1.05;;;22.90;87.60;;;;;;5114234;28;20298;-66
2023/04/04 00:13:23;;;;;;;2.65;1.15;;;22.20;86.80;;;;;;5113674;28;20195;-67
2023/04/04 00:16:12;;;;;;;1.48;1.10;;;;;;;;;;5114211;28;20195;-67
2023/04/04 00:19:00;;;;;;;1.50;1.10;;;;;;;;;;5113397;28;20577;-66
2023/04/04 00:21:49;;;;;;;1.17;0.90;;;;;;;;;;5113476;28;20223;-66
2023/04/04 00:24:38;;;;;;;1.55;1.10;;;22.00;74.00;;;;;;5114005;28;20237;-67
2023/04/04 00:27:26;;;;;;;1.20;0.80;;;22.50;79.90;;;;;;5113773;28;20195;-67
2023/04/04 00:30:15;;;;;;;1.42;1.00;;;22.30;79.70;;;;;;5112854;28;20286;-67
2023/04/04 00:33:03;;;;;;;1.27;1.10;;;;;;;;;;5112710;28;20278;-69
2023/04/04 00:35:51;;;;;;;1.27;1.00;;;22.20;84.10;;;;;;5113147;28;20692;-67
2023/04/04 00:38:40;;;;;;;3.20;1.23;;;22.40;87.50;;;;;;5113103;28;20211;-66
2023/04/04 00:41:29;;;;;;;2.08;1.00;;;22.20;51.20;;;;;;5113332;28;20243;-69
2023/04/04 00:44:18;;;;;;;1.42;0.80;;;22.50;73.50;;;;;;5112368;28;20229;-67
2023/04/04 00:47:06;;;;;;;1.65;0.90;;;;;;;;;;5113308;28;20195;-67
2023/04/04 00:49:54;;;;;;;1.98;0.90;;;22.10;87.10;;;;;;5112857;28;20580;-66
2023/04/04 00:52:42;;;;;;;1.45;0.93;;;;;;;;;;5112961;28;20403;-66
2023/04/04 00:55:31;;;;;;;1.42;1.08;;;22.50;82.60;;;;;;5113402;28;20218;-67
2023/04/04 00:58:20;;;;;;;1.83;1.00;;;22.20;78.90;;;;;;5112608;28;20206;-66
2023/04/04 01:01:09;;;;;;;1.75;1.08;;;;;;;;;;5111890;28;20223;-67
2023/04/04 01:03:58;;;;;;;4.50;0.95;;;;;;;;;;5112294;28;20226;-68
2023/04/04 01:06:46;;;;;;;4.43;1.23;;;22.50;54.20;;;;;;5113157;28;20206;-68
2023/04/04 01:09:34;;;;;;;1.23;0.88;;;;;;;;;;5112297;28;20200;-67
2023/04/04 01:12:23;;;;;;;1.13;0.88;;;22.30;87.10;;;;;;5112996;28;20315;-66
2023/04/04 01:15:12;;;;;;;1.20;1.10;;;22.00;86.70;;;;;;5112362;28;20197;-66
2023/04/04 01:18:02;;;;;;;1.58;0.90;;;22.10;50.70;;;;;;5112019;28;20204;-66
2023/04/04 01:20:56;;;;;;;1.05;0.80;;;22.50;61.50;;;;;;5112819;28;20223;-66
2023/04/04 01:23:56;;;;;;;1.30;0.95;;;21.90;78.50;;;;;;5111811;28;20191;-66
2023/04/04 01:26:46;;;;;;;1.85;1.13;;;22.30;78.70;;;;;;5111378;28;20739;-65
2023/04/04 01:29:34;;;;;;;3.15;1.00;;;22.60;86.00;;;;;;5112484;28;20597;-66
2023/04/04 01:32:30;;;;;;;4.13;1.02;;;22.20;57.20;;;;;;5111692;28;20227;-66
2023/04/04 01:35:37;;;;;;;1.50;1.17;;;22.40;51.00;;;;;;5112350;28;20222;-67
2023/04/04 01:38:30;;;;;;;1.80;1.02;;;22.10;63.50;;;;;;5111133;28;20199;-66
2023/04/04 01:41:21;;;;;;;3.35;1.17;;;22.40;86.90;;;;;;5111719;28;20332;-66
2023/04/04 01:44:11;;;;;;;2.35;0.90;;;22.30;51.20;;;;;;5112109;28;20680;-66
2023/04/04 01:46:59;;;;;;;2.88;1.00;;;;;;;;;;5112087;28;20695;-66
2023/04/04 01:49:47;;;;;;;1.38;0.90;;;;;;;;;;5112168;28;20237;-66
2023/04/04 01:52:36;;;;;;;0.90;0.80;;;22.00;74.20;;;;;;5110928;28;20207;-66
2023/04/04 01:55:24;;;;;;;2.65;1.30;;;22.00;86.40;;;;;;5112007;28;20633;-66
2023/04/04 01:58:12;;;;;;;1.98;1.45;;;22.00;81.40;;;;;;5106906;28;20337;-66
2023/04/04 02:01:02;;;;;;;1.90;1.08;;;22.10;51.00;;;;;;5095196;28;20317;-66
2023/04/04 02:03:50;;;;;;;1.23;1.13;;;;;;;;;;5091842;28;20618;-66
2023/04/04 02:06:39;;;;;;;1.90;1.23;;;22.40;86.50;;;;;;5090547;28;20196;-66
2023/04/04 02:09:27;;;;;;;2.28;1.10;;;21.90;80.10;;;;;;5091543;28;20573;-66
2023/04/04 02:12:15;;;;;;;2.08;0.95;;;22.20;80.20;;;;;;5090704;28;20220;-66
2023/04/04 02:15:04;;;;;;;0.93;0.82;;;21.90;79.80;;;;;;5091693;28;20676;-66
2023/04/04 02:17:53;;;;;;;1.25;0.90;;;21.90;78.20;;;;;;5090952;28;20292;-66
2023/04/04 02:20:41;;;;;;;1.38;0.80;;;22.20;81.40;;;;;;5091442;28;20291;-66
2023/04/04 02:23:29;;;;;;;1.63;1.20;;;22.50;83.70;;;;;;5091267;28;20370;-66
2023/04/04 02:26:17;;;;;;;1.20;0.93;;;21.80;83.10;;;;;;5091586;28;20306;-66
2023/04/04 02:29:06;;;;;;;2.42;1.00;;;21.90;85.20;;;;;;5091655;28;20590;-66
2023/04/04 02:31:54;;;;;;;1.70;0.93;;;;;;;;;;5124558;22;20722;-60
2023/04/04 02:34:44;;;;;;;1.20;1.10;;;22.20;50.40;;;;;;5112400;28;20274;-61
2023/04/04 02:37:32;;;;;;;2.13;1.30;;;22.50;80.20;;;;;;5113000;28;20635;-61
2023/04/04 02:40:20;;;;;;;1.20;1.10;;;22.30;80.40;;;;;;5112844;28;20336;-60
2023/04/04 02:43:08;;;;;;;2.25;1.50;;;22.50;80.70;;;;;;5091983;28;20228;-60
2023/04/04 02:45:56;;;;;;;1.90;1.30;;;22.00;82.30;;;;;;5091923;28;20302;-60
2023/04/04 02:48:45;;;;;;;1.08;1.00;;;22.20;58.00;;;;;;5091171;28;20199;-60
2023/04/04 02:51:34;;;;;;;3.50;1.27;;;22.00;52.70;;;;;;5092215;28;20299;-60
2023/04/04 02:54:22;;;;;;;1.75;0.98;;;21.80;76.60;;;;;;5093249;28;20321;-60
2023/04/04 02:57:11;;;;;;;1.65;1.10;;;21.50;84.40;;;;;;5090978;28;20204;-60
2023/04/04 02:59:59;;;;;;;2.25;1.17;;;;;;;;;;5091080;28;20237;-60
2023/04/04 03:02:53;;;;;;;3.67;1.10;;;21.90;48.70;;;;;;5091209;28;20613;-60
2023/04/04 03:05:42;;;;;;;2.58;1.48;;;22.40;68.10;;;;;;5090898;28;20298;-60
2023/04/04 03:08:31;;;;;;;1.15;1.00;;;22.30;63.50;;;;;;5092340;28;20246;-60
2023/04/04 03:11:20;;;;;;;2.33;1.00;;;22.10;76.10;;;;;;5090966;28;20665;-60
2023/04/04 03:14:08;;;;;;;2.15;1.25;;;;;;;;;;5091811;28;20200;-61
2023/04/04 03:16:56;;;;;;;2.65;1.08;;;22.10;75.30;;;;;;5091707;28;20231;-60
2023/04/04 03:19:45;;;;;;;1.48;1.15;;;22.60;81.80;;;;;;5091020;28;20330;-60
2023/04/04 03:22:33;;;;;;;2.67;1.15;;;22.20;76.80;;;;;;5091285;28;20265;-60
2023/04/04 03:25:22;;;;;;;1.40;1.08;;;22.50;78.30;;;;;;5091371;28;20680;-60
2023/04/04 03:28:11;;;;;;;17.13;1.73;;;21.90;81.20;;;;;;5094359;28;20278;-60
2023/04/04 03:31:03;;;;;;;1.30;1.02;;;22.20;84.70;;;;;;5094914;28;20220;-60
2023/04/04 03:33:52;;;;;;;1.90;1.13;;;22.50;78.80;;;;;;5094820;28;20685;-60
2023/04/04 03:36:40;;;;;;;2.72;1.30;;;22.20;76.90;;;;;;5096044;28;20779;-60
2023/04/04 03:39:29;;;;;;;1.35;1.08;;;22.10;77.70;;;;;;5095179;28;20642;-61
2023/04/04 03:42:18;;;;;;;2.80;1.48;;;22.10;83.40;;;;;;5094700;28;20255;-60
2023/04/04 03:45:08;;;;;;;2.30;1.25;;;22.20;49.00;;;;;;5094849;28;20463;-60
2023/04/04 03:47:56;;;;;;;1.73;1.45;;;22.20;82.40;;;;;;5110207;28;20320;-61
2023/04/04 03:50:44;;;;;;;2.30;1.33;;;22.10;81.80;;;;;;5107960;28;20220;-60
2023/04/04 03:53:32;;;;;;;2.70;0.98;;;21.80;84.10;;;;;;5095093;28;20222;-60
2023/04/04 03:56:20;;;;;;;1.42;1.00;;;22.10;82.20;;;;;;5095039;28;20326;-60
2023/04/04 03:59:09;;;;;;;1.90;1.35;;;22.10;82.50;;;;;;5094331;28;20702;-60
2023/04/04 04:01:57;;;;;;;1.27;1.13;;;21.90;64.40;;;;;;5096762;28;20216;-61
2023/04/04 04:04:46;;;;;;;1.38;1.17;;;;;;;;;;5097411;28;20290;-60
2023/04/04 04:07:34;;;;;;;1.30;1.20;;;;;;;;;;5094441;28;20204;-60
2023/04/04 04:10:22;;;;;;;1.90;1.45;;;21.90;83.30;;;;;;5095178;28;20200;-60
2023/04/04 04:13:10;;;;;;;1.80;1.33;;;21.90;84.50;;;;;;5095375;28;20204;-60
2023/04/04 04:16:00;;;;;;;4.43;1.30;;;22.30;83.40;;;;;;5096540;28;20196;-60
2023/04/04 04:18:48;;;;;;;4.18;1.10;;;22.10;64.60;;;;;;5093030;28;20200;-61
2023/04/04 04:21:36;;;;;;;1.50;1.35;;;21.80;84.20;;;;;;5095378;28;20224;-60
2023/04/04 04:24:24;;;;;;;2.42;1.17;;;21.80;83.90;;;;;;5095381;28;20346;-60
2023/04/04 04:27:12;;;;;;;1.60;1.10;;;22.40;83.10;;;;;;5095577;28;20437;-60
2023/04/04 04:30:00;;;;;;;2.65;1.13;;;22.30;71.40;;;;;;5093428;28;20200;-61
2023/04/04 04:32:50;;;;;;;1.60;1.20;;;22.20;64.50;;;;;;5094430;28;20639;-61
2023/04/04 04:35:38;;;;;;;1.92;1.38;;;;;;;;;;5094453;28;20196;-61
2023/04/04 04:38:27;;;;;;;1.65;1.10;;;22.10;77.40;;;;;;5092898;28;20200;-60
2023/04/04 04:41:15;;;;;;;1.27;1.10;;;22.10;84.50;;;;;;5094261;28;20212;-60
2023/04/04 04:44:03;;;;;;;1.02;0.90;;;22.40;84.40;;;;;;5093322;28;20284;-60
2023/04/04 04:46:51;;;;;;;2.05;1.33;;;22.30;85.30;;;;;;5094584;28;20212;-61
2023/04/04 04:49:43;;;;;;;1.35;1.15;;;22.00;84.00;;;;;;5095033;28;20223;-60
2023/04/04 04:52:31;;;;;;;2.13;1.25;;;22.30;77.90;;;;;;5094497;28;20651;-60
2023/04/04 04:55:19;;;;;;;2.08;1.88;;;22.20;74.50;;;;;;5093999;28;20196;-60
2023/04/04 04:58:07;;;;;;;1.35;1.10;;;22.30;70.80;;;;;;5093911;28;20200;-61
2023/04/04 05:00:56;;;;;;;1.27;1.17;;;22.10;63.90;;;;;;5092509;28;20715;-61
2023/04/04 05:03:45;;;;;;;2.28;1.33;;;22.20;84.30;;;;;;5095615;28;20198;-60
2023/04/04 05:06:34;;;;;;;4.80;1.45;;;21.90;71.70;;;;;;5094570;28;20453;-60
2023/04/04 05:09:22;;;;;;;3.63;1.27;;;22.50;81.60;;;;;;5093690;28;20196;-59
2023/04/04 05:12:10;;;;;;;2.55;1.23;;;22.10;78.80;;;;;;5093739;28;20311;-60
2023/04/04 05:14:58;;;;;;;2.78;1.45;;;22.10;76.00;;;;;;5094323;28;20326;-60
2023/04/04 05:17:47;;;;;;;7.32;4.28;;;22.40;77.20;;;;;;5094634;28;20200;-60
2023/04/04 05:20:36;;;;;;;4.07;2.53;;;22.30;74.20;;;;;;5093038;28;20207;-60
2023/04/04 05:23:26;;;;;;;3.47;2.20;;;21.90;82.00;;;;;;5093598;28;20195;-60
2023/04/04 05:26:14;;;;;;;1.73;1.58;;;22.10;55.30;;;;;;5094147;28;20216;-61
2023/04/04 05:29:02;;;;;;;2.42;1.55;;;22.40;62.40;;;;;;5094158;28;20842;-61
2023/04/04 05:31:50;;;;;;;3.08;1.20;;;;;;;;;;5093185;28;20224;-61
2023/04/04 05:34:38;;;;;;;3.85;1.60;;;22.40;82.90;;;;;;5093703;28;20636;-60
2023/04/04 05:37:27;;;;;;;3.40;1.60;;;22.60;83.00;;;;;;5092061;28;20279;-61
2023/04/04 05:40:17;;;;;;;4.93;2.05;;;22.10;79.30;;;;;;5094798;28;20281;-60
2023/04/04 05:43:05;;;;;;;2.05;1.33;;;22.50;82.90;;;;;;5093957;28;20585;-60
2023/04/04 05:45:53;;;;;;;2.03;1.60;;;22.10;82.70;;;;;;5094954;28;20250;-60
2023/04/04 05:48:41;;;;;;;3.58;1.98;;;22.40;84.00;;;;;;5094344;28;20198;-60
2023/04/04 05:51:29;;;;;;;5.57;1.77;;;22.00;84.50;;;;;;5094514;28;20261;-61
2023/04/04 05:54:18;;;;;;;2.05;1.48;;;;;;;;;;5093431;28;20196;-61
2023/04/04 05:57:08;;;;;;;4.82;1.48;;;22.20;75.20;;;;;;5094364;28;20559;-60
2023/04/04 05:59:56;;;;;;;6.20;1.60;;;21.90;80.80;;;;;;5093570;28;20242;-60
2023/04/04 06:02:44;;;;;;;3.17;1.70;;;22.10;77.10;;;;;;5078443;28;20216;-60
2023/04/04 06:05:32;;;;;;;20.50;13.07;;;22.20;75.00;;;;;;5089658;28;20215;-60
2023/04/04 06:08:20;;;;;;;8.15;4.53;;;22.20;75.40;;;;;;5079813;28;20687;-61
2023/04/04 06:11:09;;;;;;;2.40;2.20;;;;;;;;;;5092955;28;20220;-60
2023/04/04 06:13:58;;;;;;;2.47;2.00;;;22.20;76.00;;;;;;5093616;28;20245;-60
2023/04/04 06:16:46;;;;;;;3.63;1.58;;;22.50;84.10;;;;;;5093471;28;20236;-61
2023/04/04 06:19:34;;;;;;;5.35;1.30;;;22.00;78.30;;;;;;5098792;28;20206;-61
2023/04/04 06:22:23;;;;;;;1.73;1.40;;;22.30;78.90;;;;;;5086406;28;20235;-60
2023/04/04 06:25:13;;;;;;;2.58;1.70;;;22.10;78.50;;;;;;5077929;28;20267;-59
2023/04/04 06:28:02;;;;;;;2.47;1.27;;;22.40;76.00;;;;;;5073013;28;20270;-60
2023/04/04 06:30:51;;;;;;;2.22;1.65;;;22.30;76.10;;;;;;5071996;28;20692;-59
2023/04/04 06:33:40;;;;;;;4.07;2.33;;;22.40;48.70;;;;;;5076595;28;20310;-60
2023/04/04 06:36:29;;;;;;;7.18;4.45;;;22.00;48.40;;;;;;5090519;28;20660;-59
2023/04/04 06:39:17;;;;;;;6.38;3.15;;;22.20;77.40;;;;;;5087922;28;20200;-60
2023/04/04 06:42:06;;;;;;;3.97;2.03;;;22.50;76.50;;;;;;5086792;28;20574;-60
2023/04/04 06:44:54;;;;;;;2.90;1.52;;;22.20;74.90;;;;;;5087808;28;20197;-59
2023/04/04 06:47:45;;;;;;;2.25;1.45;;;22.50;83.10;;;;;;5071927;28;20209;-60
2023/04/04 06:50:34;;;;;;;5.28;1.80;;;;;;;;;;5072043;28;20645;-61
2023/04/04 06:53:22;;;;;;;2.92;1.30;;;22.40;57.50;;;;;;5070941;28;20208;-59
2023/04/04 06:56:10;;;;;;;6.47;1.58;;;22.60;78.00;;;;;;5069003;28;20205;-59
2023/04/04 06:58:59;;;;;;;4.00;1.45;;;;;;;;;;5072866;28;20684;-62
2023/04/04 07:01:47;;;;;;;2.40;1.38;;;22.80;62.80;;;;;;5082323;28;20227;-62
2023/04/04 07:04:38;;;;;;;3.10;1.73;;;22.50;59.90;;;;;;5092939;28;20207;-60
2023/04/04 07:07:26;;;;;;;2.15;1.52;;;22.20;74.10;;;;;;5086981;28;20833;-60
2023/04/04 07:10:14;;;;;;;1.45;1.33;;;22.70;77.00;;;;;;5082975;28;20193;-59
2023/04/04 07:13:02;;;;;;;1.63;1.40;;;22.20;75.50;;;;;;5080105;28;20251;-59
2023/04/04 07:15:50;;;;;;;2.42;1.50;;;22.70;76.10;;;;;;5076404;28;20232;-59
2023/04/04 07:18:19;;;;;;;1.85;1.10;;;22.80;76.50;;;;;;5076835;28;20304;-59
2023/04/04 07:20:48;;;;;;;3.70;1.73;;;22.80;80.80;;;;;;5081443;28;20225;-60
2023/04/04 07:23:16;;;;;;;4.15;1.55;;;22.50;61.80;;;;;;5081239;28;20227;-60
2023/04/04 07:25:44;;;;;;;3.38;1.40;;;22.90;62.60;;;;;;5087139;28;20197;-60
2023/04/04 07:28:13;;;;;;;2.03;1.35;;;22.50;66.60;;;;;;5090749;28;20285;-65
2023/04/04 07:30:40;;;;;;;3.67;1.45;;;23.10;51.80;;;;;;5095392;28;20196;-71
2023/04/04 07:33:09;;;;;;;2.25;1.00;;;23.10;49.20;;;;;;5095439;28;20204;-71
2023/04/04 07:35:37;;;;;;;5.22;1.67;;;23.40;48.90;;;;;;5084920;28;20245;-68
2023/04/04 07:38:07;;;;;;;6.43;2.53;;;23.80;48.60;;;;;;5092629;28;20189;-70
2023/04/04 07:40:35;;;;;;;3.72;1.50;;;24.30;49.80;;;;;;5095720;28;20204;-70
2023/04/04 07:43:03;;;;;;;3.25;1.13;;;24.30;48.10;;;;;;5097984;28;20206;-69
2023/04/04 07:45:31;;;;;;;4.50;1.75;;;24.40;47.90;;;;;;5094224;28;20201;-72
2023/04/04 07:47:59;;;;;;;5.63;1.25;;;24.50;48.10;;;;;;5096040;28;20315;-71
2023/04/04 07:50:27;;;;;;;3.42;1.13;;;24.20;49.60;;;;;;5108145;28;20288;-72
2023/04/04 07:52:57;;;;;;;6.20;1.55;;;24.40;48.20;;;;;;5103509;28;20200;-70
2023/04/04 07:55:26;;;;;;;2.15;1.10;;;24.30;48.20;;;;;;5099626;28;20228;-69
2023/04/04 07:57:55;;;;;;;4.38;1.40;;;24.30;48.30;;;;;;5107291;28;20192;-70
2023/04/04 08:00:25;;;;;;;1.95;1.27;;;24.20;60.70;;;;;;5093252;28;20220;-70
2023/04/04 08:02:54;;;;;;;2.42;1.45;;;24.30;48.60;;;;;;5087666;28;20271;-70
2023/04/04 08:05:23;;;;;;;3.65;2.40;;;24.30;48.50;;;;;;5088193;28;20284;-72
2023/04/04 08:07:51;;;;;;;6.32;2.00;;;24.40;48.60;;;;;;5082912;28;20212;-71
2023/04/04 08:10:20;;;;;;;3.53;1.25;;;24.50;48.20;;;;;;5086398;28;20204;-70
2023/04/04 08:12:50;;;;;;;2.67;1.40;;;24.50;47.90;;;;;;5079323;28;20207;-69
2023/04/04 08:15:18;;;;;;;1.05;0.95;;;24.60;48.50;;;;;;5089890;28;20204;-71
2023/04/04 08:17:46;;;;;;;8.23;1.38;;;24.60;48.20;;;;;;5095300;28;20188;-71
2023/04/04 08:20:14;;;;;;;1.73;1.00;;;24.70;48.20;;;;;;5082509;28;20200;-70
2023/04/04 08:22:42;;;;;;;2.33;1.10;;;24.60;47.70;;;;;;5079678;28;20300;-73
2023/04/04 08:25:10;;;;;;;4.88;1.60;;;24.50;48.20;;;;;;5081828;28;20201;-70
2023/04/04 08:27:43;;;;;;;6.25;1.65;;;24.60;48.30;;;;;;5084268;28;20209;-70
2023/04/04 08:30:14;;;;;;;2.05;1.30;;;24.50;48.40;;;;;;5082902;28;20275;-70
2023/04/04 08:32:44;;;;;;;2.67;1.33;;;24.60;48.20;;;;;;5079279;28;20735;-68
2023/04/04 08:35:12;;;;;;;6.43;1.38;;;24.70;49.00;;;;;;5080393;28;20215;-70
2023/04/04 08:37:44;;;;;;;5.45;1.00;;;24.70;48.70;;;;;;5080064;28;20208;-70
2023/04/04 08:40:13;;;;;;;3.50;1.83;;;24.80;48.50;;;;;;5078725;28;20227;-69
2023/04/04 08:42:43;;;;;;;5.00;2.08;;;24.90;48.50;;;;;;5080854;28;20220;-69
2023/04/04 08:45:16;;;;;;;2.60;1.33;;;24.90;48.40;;;;;;5083710;28;20196;-71
2023/04/04 08:47:45;;;;;;;3.30;1.58;;;24.80;48.50;;;;;;5093742;28;20208;-71
2023/04/04 08:50:14;;;;;;;1.55;1.13;;;24.80;48.60;;;;;;5078332;28;20250;-71
2023/04/04 08:52:43;;;;;;;2.83;1.15;;;24.80;48.40;;;;;;5082381;28;20216;-70
2023/04/04 08:55:13;;;;;;;4.13;1.55;;;24.80;48.40;;;;;;5083399;28;20197;-72
2023/04/04 08:57:41;;;;;;;4.70;1.48;;;24.80;48.10;;;;;;5089642;28;20207;-71
2023/04/04 09:00:10;;;;;;;2.88;1.10;;;24.80;48.30;;;;;;5083945;28;20196;-72
2023/04/04 09:02:50;;;;;;;2.33;1.45;;;24.70;47.50;;;;;;5090306;28;20216;-71
2023/04/04 09:05:19;;;;;;;3.22;1.50;;;24.60;48.10;;;;;;5091621;28;20208;-71
2023/04/04 09:07:47;;;;;;;3.50;0.90;;;24.50;47.70;;;;;;5076040;28;20271;-71
2023/04/04 09:10:15;;;;;;;1.40;0.95;;;24.50;48.20;;;;;;5078457;28;20192;-72
2023/04/04 09:12:46;;;;;;;1.20;1.10;;;24.50;47.70;;;;;;5093491;28;20222;-71
2023/04/04 09:15:15;;;;;;;2.80;1.00;;;24.50;48.20;;;;;;5087100;28;20224;-70
2023/04/04 09:17:44;;;;;;;2.08;0.90;;;24.50;48.30;;;;;;5073262;28;20254;-70
2023/04/04 09:20:38;;;;;;;5.47;1.40;;;24.60;47.60;;;;;;5086387;28;20197;-69
2023/04/04 09:23:08;;;;;;;1.42;1.02;;;24.60;48.20;;;;;;5093271;28;20196;-69
2023/04/04 09:25:37;;;;;;;3.83;1.70;;;24.70;48.10;;;;;;5087850;28;20287;-70
2023/04/04 09:28:05;;;;;;;1.70;1.10;;;24.80;48.00;;;;;;5085535;28;20228;-70
2023/04/04 09:30:34;;;;;;;1.95;1.10;;;24.80;59.90;;;;;;5081142;28;20192;-70
2023/04/04 09:33:05;;;;;;;2.38;1.00;;;24.70;47.50;;;;;;5093210;28;20200;-70
2023/04/04 09:35:37;;;;;;;3.50;1.10;;;24.80;47.80;;;;;;5091990;28;20249;-70
2023/04/04 09:38:06;;;;;;;2.65;1.00;;;24.80;48.50;;;;;;5080422;28;20304;-70
2023/04/04 09:40:35;;;;;;;2.78;1.08;;;24.60;58.90;;;;;;5082822;28;20250;-70
2023/04/04 09:43:07;;;;;;;2.03;0.90;;;24.80;47.80;;;;;;5092038;28;20200;-70
2023/04/04 09:45:38;;;;;;;3.00;1.08;;;24.80;47.80;;;;;;5085460;28;20192;-72
2023/04/04 09:48:09;;;;;;;1.45;0.90;;;24.70;48.00;;;;;;5078266;28;20218;-71
2023/04/04 09:50:38;;;;;;;6.75;2.00;;;24.50;60.50;;;;;;5088025;28;20203;-71
2023/04/04 09:53:06;;;;;;;9.00;1.27;;;24.50;48.30;;;;;;5073340;28;20197;-71
2023/04/04 09:55:35;;;;;;;3.90;1.00;;;24.50;48.20;;;;;;5085581;28;20206;-69
2023/04/04 09:58:12;;;;;;;3.08;1.17;;;24.40;47.90;;;;;;5092341;28;20204;-70
2023/04/04 10:00:43;;;;;;;1.30;0.98;;;24.00;57.80;;;;;;5089832;28;20195;-70
2023/04/04 10:03:14;;;;;;;1.73;1.08;;;24.40;48.50;;;;;;5080678;28;20196;-69
2023/04/04 10:05:42;;;;;;;2.08;1.00;;;24.50;48.70;;;;;;5072100;28;20196;-69
2023/04/04 10:08:15;;;;;;;2.42;1.25;;;24.70;48.50;;;;;;5070441;28;20204;-69
2023/04/04 10:10:50;;;;;;;2.75;1.63;;;24.90;47.70;;;;;;5070265;28;20220;-69
2023/04/04 10:13:39;;;;;;;1.50;1.20;;;24.90;47.90;;;;;;5075861;28;20201;-69
2023/04/04 10:16:09;;;;;;;2.55;1.00;;;25.00;47.90;;;;;;5070967;28;20196;-69
2023/04/04 10:18:45;;;;;;;1.60;0.90;;;25.00;47.30;;;;;;5098467;22;20234;-61
2023/04/04 10:21:34;;;;;;;1.95;1.20;;;25.00;47.60;;;;;;5090626;28;20231;-61
2023/04/04 10:24:22;;;;;;;2.65;0.98;;;25.00;47.70;;;;;;5090284;28;20191;-62
2023/04/04 10:26:56;;;;;;;1.27;0.80;;;25.00;47.70;;;;;;5091842;28;20555;-62
2023/04/04 10:29:26;;;;;;;4.47;0.95;;;25.00;47.30;;;;;;5077994;28;20219;-62
2023/04/04 10:32:01;;;;;;;1.65;1.00;;;25.00;47.60;;;;;;5071606;28;20208;-62
2023/04/04 10:34:38;;;;;;;1.42;1.00;;;25.00;47.70;;;;;;5071401;28;20208;-62
2023/04/04 10:37:08;;;;;;;1.75;1.00;;;25.00;47.60;;;;;;5073246;28;20230;-62
2023/04/04 10:40:04;;;;;;;1.80;1.35;;;25.00;47.20;;;;;;5085857;28;20655;-62
2023/04/04 10:42:51;;;;;;;2.40;1.10;;;25.00;47.70;;;;;;5083102;28;20795;-62
2023/04/04 10:45:21;;;;;;;2.55;1.10;;;25.00;47.50;;;;;;5075624;28;20609;-62
2023/04/04 10:47:51;;;;;;;1.77;0.82;;;25.00;54.10;;;;;;5075457;28;20196;-62
2023/04/04 10:50:20;;;;;;;5.28;1.30;;;25.00;47.40;;;;;;5075035;28;20231;-62
2023/04/04 10:52:50;;;;;;;1.23;1.13;;;25.00;47.50;;;;;;5075280;28;20197;-62
2023/04/04 10:55:19;;;;;;;2.42;0.77;;;25.00;47.30;;;;;;5075826;28;20250;-62
2023/04/04 10:57:51;;;;;;;3.03;0.90;;;24.70;52.60;;;;;;5075345;28;20204;-62
2023/04/04 11:00:22;;;;;;;1.23;0.70;;;25.00;47.00;;;;;;5075197;28;20193;-62
2023/04/04 11:02:54;;;;;;;2.22;1.05;;;25.10;47.30;;;;;;5076116;28;20219;-62
2023/04/04 11:05:25;;;;;;;4.88;0.80;;;25.00;47.30;;;;;;5095383;28;20204;-62
2023/04/04 11:07:57;;;;;;;2.17;1.13;;;25.30;56.40;;;;;;5095232;28;20200;-62
2023/04/04 11:10:30;;;;;;;2.75;0.80;;;25.00;46.90;;;;;;5086395;28;20212;-62
2023/04/04 11:13:06;;;;;;;0.98;0.82;;;25.00;47.30;;;;;;5074965;28;20258;-62
2023/04/04 11:15:52;;;;;;;0.82;0.70;;;25.00;47.30;;;;;;5075359;28;20204;-62
2023/04/04 11:18:22;;;;;;;2.72;0.88;;;25.00;46.70;;;;;;5074908;28;20228;-62
2023/04/04 11:21:04;;;;;;;1.75;0.88;;;25.00;47.20;;;;;;5075070;28;20193;-63
2023/04/04 11:24:15;;;;;;;1.52;0.95;;;25.00;47.10;;;;;;5073546;28;20662;-62
2023/04/04 11:26:45;;;;;;;1.10;0.95;;;25.00;47.20;;;;;;5074750;28;20684;-62
2023/04/04 11:29:22;;;;;;;1.60;0.90;;;25.10;46.70;;;;;;5074587;28;20213;-63
2023/04/04 11:31:51;;;;;;;1.23;0.80;;;25.10;47.00;;;;;;5074235;28;20750;-62
2023/04/04 11:34:33;;;;;;;3.55;0.77;;;25.20;47.10;;;;;;5074795;28;20572;-62
2023/04/04 11:37:17;;;;;;;1.02;0.90;;;25.10;46.80;;;;;;5090560;28;20680;-62
2023/04/04 11:39:55;;;;;;;1.20;0.95;;;25.10;46.60;;;;;;5094837;28;20219;-62
2023/04/04 11:42:23;;;;;;;2.35;0.75;;;25.20;46.80;;;;;;5094090;28;20626;-62
2023/04/04 11:45:05;;;;;;;2.85;1.75;;;25.10;46.80;;;;;;5094721;28;20621;-62
2023/04/04 11:47:33;;;;;;;1.70;0.85;;;25.10;46.90;;;;;;5094306;28;20200;-62
2023/04/04 11:50:07;;;;;;;1.85;0.90;;;25.10;46.70;;;;;;5094485;28;20629;-62
2023/04/04 11:52:37;;;;;;;0.88;0.70;;;25.00;46.70;;;;;;5094650;28;20192;-62
2023/04/04 11:55:15;;;;;;;4.15;0.90;;;25.00;46.90;;;;;;5094520;28;20854;-63
2023/04/04 11:57:43;;;;;;;3.58;0.80;;;24.90;47.00;;;;;;5083517;28;20726;-63
2023/04/04 12:00:14;;;;;;;0.70;0.70;;;24.70;46.50;;;;;;5075211;28;20300;-63
2023/04/04 12:02:42;;;;;;;1.73;0.70;;;24.70;47.00;;;;;;5086481;28;20223;-63
2023/04/04 12:05:11;;;;;;;1.38;0.90;;;24.70;47.00;;;;;;5093977;28;20287;-63
2023/04/04 12:07:41;;;;;;;1.23;0.90;;;24.70;47.00;;;;;;5094042;28;20204;-63
2023/04/04 12:10:10;;;;;;;1.75;0.90;;;24.90;47.00;;;;;;5083606;28;20234;-63
2023/04/04 12:12:38;;;;;;;0.80;0.77;;;25.00;47.10;;;;;;5088397;28;20212;-63
2023/04/04 12:15:08;;;;;;;1.40;0.80;;;25.00;46.70;;;;;;5084569;28;20203;-62
2023/04/04 12:17:47;;;;;;;1.20;0.80;;;25.00;57.80;;;;;;5084618;28;20200;-63
2023/04/04 12:20:17;;;;;;;1.25;0.68;;;25.10;46.70;;;;;;5085673;28;20196;-63
2023/04/04 12:22:48;;;;;;;1.65;0.93;;;25.30;46.80;;;;;;5081335;28;20212;-63
2023/04/04 12:25:17;;;;;;;2.30;0.82;;;25.30;47.50;;;;;;5083470;28;20290;-63
2023/04/04 12:27:46;;;;;;;2.88;1.13;;;25.50;52.40;;;;;;5076306;28;20204;-63
2023/04/04 12:30:15;;;;;;;1.20;1.10;;;25.20;46.50;;;;;;5084935;28;20225;-62
2023/04/04 12:32:44;;;;;;;1.67;0.77;;;25.20;46.80;;;;;;5089739;28;20287;-62
2023/04/04 12:35:15;;;;;;;0.95;0.90;;;25.10;46.60;;;;;;5076520;28;20204;-63
2023/04/04 12:38:01;;;;;;;1.60;1.00;;;25.10;46.50;;;;;;5082126;28;20208;-62
2023/04/04 12:40:35;;;;;;;1.20;0.98;;;25.10;46.50;;;;;;5085769;28;20246;-62
2023/04/04 12:43:05;;;;;;;0.98;0.85;;;25.10;46.70;;;;;;5082411;28;20287;-62
2023/04/04 12:45:37;;;;;;;1.15;0.77;;;25.10;46.90;;;;;;5093697;28;20204;-62
2023/04/04 12:48:11;;;;;;;2.47;0.70;;;25.20;46.90;;;;;;5084322;28;20303;-62
2023/04/04 12:50:53;;;;;;;0.90;0.70;;;25.30;47.00;;;;;;5081775;28;20217;-62
2023/04/04 12:53:24;;;;;;;4.03;1.00;;;25.30;46.80;;;;;;5081584;28;20199;-62
2023/04/04 12:55:55;;;;;;;1.65;0.90;;;25.30;46.30;;;;;;5082402;28;20261;-62
2023/04/04 12:58:25;;;;;;;1.30;0.70;;;25.30;46.50;;;;;;5079647;28;20228;-63
2023/04/04 13:00:54;;;;;;;0.80;0.80;;;25.30;46.70;;;;;;5081591;28;20184;-62
2023/04/04 13:03:24;;;;;;;2.00;0.80;;;25.30;46.70;;;;;;5088987;28;20585;-63
2023/04/04 13:05:52;;;;;;;0.80;0.80;;;25.30;46.90;;;;;;5083236;28;20765;-63
2023/04/04 13:08:20;;;;;;;1.50;0.90;;;25.30;46.60;;;;;;5082398;28;20256;-63
2023/04/04 13:11:02;;;;;;;0.70;0.70;;;25.40;46.70;;;;;;5084207;28;20712;-63
2023/04/04 13:13:32;;;;;;;2.25;1.00;;;25.40;46.90;;;;;;5083011;28;20588;-63
2023/04/04 13:16:05;;;;;;;0.60;0.60;;;25.40;47.00;;;;;;5071469;28;20723;-62
2023/04/04 13:18:36;;;;;;;1.48;0.93;;;25.30;46.20;;;;;;5082015;28;20810;-62
2023/04/04 13:21:06;;;;;;;0.70;0.70;;;25.30;46.90;;;;;;5091186;28;20562;-62
2023/04/04 13:23:36;;;;;;;1.65;0.90;;;25.20;46.50;;;;;;5092519;28;20737;-63
2023/04/04 13:26:06;;;;;;;3.20;1.08;;;25.20;47.00;;;;;;5092515;28;20222;-64
2023/04/04 13:28:35;;;;;;;21.48;2.25;;;25.20;46.30;;;;;;5090796;28;20223;-64
2023/04/04 13:31:03;;;;;;;4.22;0.90;;;25.20;47.00;;;;;;5076125;28;20281;-63
2023/04/04 13:33:32;;;;;;;3.67;2.03;;;25.20;46.70;;;;;;5072094;28;20208;-64
2023/04/04 13:36:00;;;;;;;3.15;1.10;;;25.30;47.10;;;;;;5074684;28;20207;-64
2023/04/04 13:38:29;;;;;;;0.93;0.80;;;25.40;46.50;;;;;;5090493;28;20228;-65
2023/04/04 13:40:57;;;;;;;2.97;1.10;;;25.30;46.80;;;;;;5091886;28;20192;-63
2023/04/04 13:43:27;;;;;;;2.70;0.90;;;25.30;47.20;;;;;;5089789;28;20291;-65
2023/04/04 13:45:55;;;;;;;2.45;0.90;;;26.20;47.60;;;;;;5081839;28;20228;-64
2023/04/04 13:48:23;;;;;;;1.30;0.70;;;25.40;46.90;;;;;;5075820;28;20213;-64
2023/04/04 13:50:53;;;;;;;1.15;0.80;;;25.40;47.40;;;;;;5083415;28;20216;-65
2023/04/04 13:53:21;;;;;;;1.88;0.85;;;25.40;47.20;;;;;;5089556;28;20202;-64
2023/04/04 13:55:50;;;;;;;4.47;0.90;;;25.40;47.10;;;;;;5089932;28;20219;-64
2023/04/04 13:58:39;;;;;;;1.73;1.00;;;25.20;46.60;;;;;;5071047;28;20256;-64
2023/04/04 14:01:08;;;;;;;2.97;0.93;;;25.30;46.90;;;;;;5069805;28;20271;-65
2023/04/04 14:03:36;;;;;;;2.38;0.80;;;25.10;46.90;;;;;;5085063;28;20200;-64